Time;durP1;ratioP1;P1;durP2;ratioP2;P2;SDS_P1;SDS_P2;PMS_P1;PMS_P2;Temp;Humidity;BMP_temperature;BMP_pressure;BME280_temperature;BME280_humidity;BME280_pressure;Samples;Min_cycle;Max_cycle;Signal;HPM_P1;HPM_P2
2021/05/05 00:01:23;;;;;;;2.73;1.53;;;;;;;;;;5094315;27;20479;-65
2021/05/05 00:03:48;;;;;;;2.43;1.10;;;;;;;;;;5094389;27;20332;-65
2021/05/05 00:06:15;;;;;;;3.13;1.10;;;;;;;;;;5096643;28;20019;-65
2021/05/05 00:08:40;;;;;;;1.90;0.80;;;;;;;;;;5104011;27;20036;-65
2021/05/05 00:11:06;;;;;;;3.27;1.33;;;;;;;;;;5100937;28;20034;-65
2021/05/05 00:13:31;;;;;;;5.50;1.00;;;;;;;;;;5100023;28;20414;-65
2021/05/05 00:15:56;;;;;;;1.87;0.90;;;;;;;;;;5101816;28;20036;-65
2021/05/05 00:18:21;;;;;;;2.63;1.10;;;;;;;;;;5094947;28;20483;-65
2021/05/05 00:20:47;;;;;;;1.83;1.00;;;;;;;;;;5106815;28;20085;-65
2021/05/05 00:23:12;;;;;;;1.80;0.90;;;;;;;;;;5100997;28;20031;-65
2021/05/05 00:25:37;;;;;;;5.27;1.10;;;;;;;;;;5095340;28;20032;-65
2021/05/05 00:28:03;;;;;;;4.00;1.10;;;;;;;;;;5100181;28;20024;-65
2021/05/05 00:30:28;;;;;;;3.73;0.97;;;;;;;;;;5097264;28;20510;-65
2021/05/05 00:32:54;;;;;;;2.53;1.30;;;;;;;;;;5096431;28;20020;-65
2021/05/05 00:35:19;;;;;;;4.77;1.30;;;;;;;;;;5097829;28;20027;-65
2021/05/05 00:37:44;;;;;;;2.83;0.90;;;;;;;;;;5095528;28;20043;-65
2021/05/05 00:40:11;;;;;;;3.20;1.00;;;;;;;;;;5105949;28;20062;-65
2021/05/05 00:42:36;;;;;;;2.97;0.93;;;;;;;;;;5099046;28;20436;-65
2021/05/05 00:45:03;;;;;;;3.57;1.27;;;;;;;;;;5092005;28;20157;-65
2021/05/05 00:47:29;;;;;;;2.10;1.13;;;;;;;;;;5098388;28;20106;-65
2021/05/05 00:49:54;;;;;;;1.93;1.00;;;;;;;;;;5091641;28;20516;-65
2021/05/05 00:52:20;;;;;;;12.07;1.63;;;;;;;;;;5102973;28;20038;-65
2021/05/05 00:54:45;;;;;;;1.80;0.77;;;;;;;;;;5092847;28;20085;-65
2021/05/05 00:57:12;;;;;;;6.03;1.00;;;;;;;;;;5093031;28;20028;-65
2021/05/05 00:59:37;;;;;;;3.73;1.10;;;;;;;;;;5101453;28;20040;-65
2021/05/05 01:02:02;;;;;;;3.13;1.20;;;;;;;;;;5098371;28;20067;-65
2021/05/05 01:04:27;;;;;;;2.00;0.87;;;;;;;;;;5106169;28;20091;-65
2021/05/05 01:06:53;;;;;;;2.50;0.90;;;;;;;;;;5096178;28;20020;-65
2021/05/05 01:09:18;;;;;;;6.00;1.47;;;;;;;;;;5102893;28;20032;-65
2021/05/05 01:11:44;;;;;;;2.87;0.83;;;;;;;;;;5096895;28;20120;-65
2021/05/05 01:14:09;;;;;;;1.67;1.00;;;;;;;;;;5105556;28;20028;-65
2021/05/05 01:16:34;;;;;;;4.97;1.70;;;;;;;;;;5097095;28;20067;-65
2021/05/05 01:19:00;;;;;;;2.60;1.03;;;;;;;;;;5099981;28;20055;-65
2021/05/05 01:21:25;;;;;;;2.37;1.20;;;;;;;;;;5101170;28;20032;-65
2021/05/05 01:23:50;;;;;;;2.60;1.23;;;;;;;;;;5100629;28;20471;-65
2021/05/05 01:26:15;;;;;;;6.10;2.00;;;;;;;;;;5108378;28;20031;-65
2021/05/05 01:28:42;;;;;;;1.40;0.73;;;;;;;;;;5108965;28;20082;-65
2021/05/05 01:31:09;;;;;;;2.67;1.30;;;;;;;;;;5105482;28;20015;-65
2021/05/05 01:33:34;;;;;;;1.73;1.17;;;;;;;;;;5106500;28;20102;-65
2021/05/05 01:36:00;;;;;;;2.10;1.00;;;;;;;;;;5103091;28;20112;-65
2021/05/05 01:38:25;;;;;;;3.47;1.10;;;;;;;;;;5105485;28;20102;-65
2021/05/05 01:40:52;;;;;;;2.20;1.00;;;;;;;;;;5111644;28;20107;-65
2021/05/05 01:43:17;;;;;;;3.37;1.00;;;;;;;;;;5107855;28;20027;-65
2021/05/05 01:45:42;;;;;;;3.33;1.00;;;;;;;;;;5103023;28;20486;-65
2021/05/05 01:48:08;;;;;;;1.57;0.80;;;;;;;;;;5101883;28;20106;-65
2021/05/05 01:50:34;;;;;;;3.73;1.20;;;;;;;;;;5105245;28;20540;-65
2021/05/05 01:52:59;;;;;;;5.47;1.33;;;;;;;;;;5107039;28;20015;-65
2021/05/05 01:55:24;;;;;;;1.57;0.90;;;;;;;;;;5106209;28;20106;-65
2021/05/05 01:57:49;;;;;;;1.80;1.07;;;;;;;;;;5097596;28;20027;-65
2021/05/05 02:00:22;;;;;;;5.27;1.10;;;;;;;;;;5104850;28;20148;-65
2021/05/05 02:02:48;;;;;;;7.23;1.63;;;;;;;;;;5108923;28;20040;-65
2021/05/05 02:05:13;;;;;;;1.60;0.87;;;;;;;;;;5109626;28;20470;-65
2021/05/05 02:07:39;;;;;;;6.60;1.30;;;;;;;;;;5102994;28;21441;-65
2021/05/05 02:10:09;;;;;;;6.53;1.33;;;;;;;;;;5105630;28;20034;-65
2021/05/05 02:12:35;;;;;;;6.13;1.50;;;;;;;;;;5101445;28;20380;-65
2021/05/05 02:15:00;;;;;;;2.03;1.00;;;;;;;;;;5106550;28;20028;-65
2021/05/05 02:17:25;;;;;;;1.40;0.80;;;;;;;;;;5102833;28;20475;-65
2021/05/05 02:19:51;;;;;;;1.73;1.10;;;;;;;;;;5105085;28;20115;-65
2021/05/05 02:22:16;;;;;;;2.70;1.00;;;;;;;;;;5101861;28;20094;-65
2021/05/05 02:24:41;;;;;;;1.50;0.80;;;;;;;;;;5104971;28;20055;-65
2021/05/05 02:27:07;;;;;;;3.27;1.10;;;;;;;;;;5109585;28;20019;-65
2021/05/05 02:29:32;;;;;;;6.03;1.07;;;;;;;;;;5107715;28;20011;-65
2021/05/05 02:31:57;;;;;;;1.73;0.70;;;;;;;;;;5107990;28;20062;-65
2021/05/05 02:34:23;;;;;;;1.70;1.20;;;;;;;;;;5099450;28;20077;-65
2021/05/05 02:36:50;;;;;;;3.93;1.00;;;;;;;;;;5103557;28;20020;-65
2021/05/05 02:39:15;;;;;;;5.63;1.53;;;;;;;;;;5106795;28;20051;-65
2021/05/05 02:41:41;;;;;;;3.50;0.80;;;;;;;;;;5101175;28;20035;-65
2021/05/05 02:44:06;;;;;;;1.83;0.90;;;;;;;;;;5097087;28;20027;-65
2021/05/05 02:46:32;;;;;;;2.87;1.10;;;;;;;;;;5101939;28;20016;-66
2021/05/05 02:48:57;;;;;;;9.53;1.30;;;;;;;;;;5106670;28;20024;-65
2021/05/05 02:51:22;;;;;;;2.97;1.60;;;;;;;;;;5097673;28;20142;-66
2021/05/05 02:53:47;;;;;;;4.00;1.20;;;;;;;;;;5096428;28;20012;-65
2021/05/05 02:56:13;;;;;;;5.47;1.20;;;;;;;;;;5102974;28;20016;-65
2021/05/05 02:58:38;;;;;;;4.67;1.40;;;;;;;;;;5097991;28;20084;-65
2021/05/05 03:01:03;;;;;;;2.70;1.07;;;;;;;;;;5097028;28;20051;-65
2021/05/05 03:03:29;;;;;;;4.13;1.53;;;;;;;;;;5106385;28;20055;-66
2021/05/05 03:05:55;;;;;;;1.93;1.00;;;;;;;;;;5097593;28;20162;-65
2021/05/05 03:08:20;;;;;;;4.13;1.50;;;;;;;;;;5098013;28;20024;-65
2021/05/05 03:10:45;;;;;;;11.90;1.33;;;;;;;;;;5101405;28;20361;-65
2021/05/05 03:13:11;;;;;;;2.30;1.10;;;;;;;;;;5101646;28;20028;-65
2021/05/05 03:15:36;;;;;;;3.20;0.93;;;;;;;;;;5106550;28;20020;-65
2021/05/05 03:18:02;;;;;;;3.17;1.00;;;;;;;;;;5096190;28;20482;-65
2021/05/05 03:20:27;;;;;;;1.57;0.87;;;;;;;;;;5098899;28;20023;-66
2021/05/05 03:22:52;;;;;;;2.70;0.93;;;;;;;;;;5097971;28;20381;-66
2021/05/05 03:25:17;;;;;;;2.87;1.23;;;;;;;;;;5101532;28;20023;-65
2021/05/05 03:27:42;;;;;;;3.33;1.27;;;;;;;;;;5103305;28;20065;-65
2021/05/05 03:30:08;;;;;;;6.40;1.20;;;;;;;;;;5106895;28;20020;-65
2021/05/05 03:32:34;;;;;;;9.93;1.23;;;;;;;;;;5104556;28;20032;-65
2021/05/05 03:35:00;;;;;;;4.97;1.40;;;;;;;;;;5104625;28;20031;-65
2021/05/05 03:37:25;;;;;;;6.50;1.27;;;;;;;;;;5103672;28;20686;-65
2021/05/05 03:39:50;;;;;;;2.30;1.07;;;;;;;;;;5105210;28;20035;-65
2021/05/05 03:42:16;;;;;;;5.50;1.67;;;;;;;;;;5099426;28;20031;-65
2021/05/05 03:44:41;;;;;;;1.97;0.83;;;;;;;;;;5097210;28;20031;-65
2021/05/05 03:47:06;;;;;;;4.60;1.30;;;;;;;;;;5108201;28;20030;-65
2021/05/05 03:49:32;;;;;;;7.37;1.83;;;;;;;;;;5109268;28;20094;-65
2021/05/05 03:51:57;;;;;;;2.20;1.03;;;;;;;;;;5103625;28;20031;-65
2021/05/05 03:54:22;;;;;;;2.93;1.20;;;;;;;;;;5104436;28;20016;-65
2021/05/05 03:56:48;;;;;;;3.50;1.50;;;;;;;;;;5108526;28;20429;-65
2021/05/05 03:59:13;;;;;;;5.23;1.50;;;;;;;;;;5101940;28;20024;-65
2021/05/05 04:01:38;;;;;;;5.30;1.67;;;;;;;;;;5104088;28;20051;-65
2021/05/05 04:04:04;;;;;;;5.07;1.77;;;;;;;;;;5104064;28;20456;-66
2021/05/05 04:06:29;;;;;;;4.97;1.50;;;;;;;;;;5100116;28;20020;-65
2021/05/05 04:08:54;;;;;;;7.00;1.50;;;;;;;;;;5104244;28;20056;-65
2021/05/05 04:11:19;;;;;;;3.07;1.20;;;;;;;;;;5100692;28;20026;-65
2021/05/05 04:13:45;;;;;;;2.93;1.00;;;;;;;;;;5098598;28;20406;-65
2021/05/05 04:16:10;;;;;;;6.37;1.13;;;;;;;;;;5102095;28;20011;-65
2021/05/05 04:18:35;;;;;;;5.80;1.10;;;;;;;;;;5106883;28;20023;-65
2021/05/05 04:21:02;;;;;;;5.67;1.00;;;;;;;;;;5094925;28;20019;-65
2021/05/05 04:23:28;;;;;;;3.20;1.43;;;;;;;;;;5100613;28;20048;-65
2021/05/05 04:25:53;;;;;;;3.57;1.30;;;;;;;;;;5104540;28;20023;-66
2021/05/05 04:28:19;;;;;;;2.37;0.87;;;;;;;;;;5097298;28;20019;-65
2021/05/05 04:30:44;;;;;;;9.03;1.60;;;;;;;;;;5104393;28;20027;-65
2021/05/05 04:33:10;;;;;;;5.40;1.30;;;;;;;;;;5100445;28;20028;-65
2021/05/05 04:35:35;;;;;;;5.70;1.83;;;;;;;;;;5095393;28;20609;-65
2021/05/05 04:38:00;;;;;;;6.03;1.33;;;;;;;;;;5098941;28;20031;-65
2021/05/05 04:40:25;;;;;;;4.13;1.80;;;;;;;;;;5103270;28;20114;-65
2021/05/05 04:42:50;;;;;;;4.63;1.70;;;;;;;;;;5096004;28;20035;-65
2021/05/05 04:45:16;;;;;;;3.20;0.77;;;;;;;;;;5100484;28;20102;-66
2021/05/05 04:47:41;;;;;;;4.93;1.03;;;;;;;;;;5099291;28;20028;-66
2021/05/05 04:50:07;;;;;;;5.20;1.27;;;;;;;;;;5103458;28;20200;-65
2021/05/05 04:52:33;;;;;;;1.80;1.23;;;;;;;;;;5100688;28;20031;-65
2021/05/05 04:54:58;;;;;;;2.83;1.23;;;;;;;;;;5101704;28;20031;-65
2021/05/05 04:57:23;;;;;;;3.03;1.33;;;;;;;;;;5107269;28;20486;-65
2021/05/05 04:59:48;;;;;;;6.17;1.13;;;;;;;;;;5095580;28;20034;-65
2021/05/05 05:02:14;;;;;;;4.90;1.13;;;;;;;;;;5103822;28;20533;-65
2021/05/05 05:04:40;;;;;;;3.87;1.40;;;;;;;;;;5100879;28;20085;-65
2021/05/05 05:07:05;;;;;;;5.50;1.13;;;;;;;;;;5096439;28;20110;-65
2021/05/05 05:09:31;;;;;;;7.30;1.40;;;;;;;;;;5106171;28;22173;-65
2021/05/05 05:11:56;;;;;;;8.30;1.50;;;;;;;;;;5101561;28;20036;-65
2021/05/05 05:14:22;;;;;;;3.90;1.30;;;;;;;;;;5083065;28;20055;-65
2021/05/05 05:16:47;;;;;;;5.97;1.53;;;;;;;;;;5084890;28;20431;-65
2021/05/05 05:19:12;;;;;;;1.87;0.80;;;;;;;;;;5107203;28;20081;-65
2021/05/05 05:21:37;;;;;;;5.23;1.43;;;;;;;;;;5103341;28;20135;-65
2021/05/05 05:24:03;;;;;;;6.63;2.20;;;;;;;;;;5097369;28;20418;-68
2021/05/05 05:26:28;;;;;;;2.57;1.13;;;;;;;;;;5101047;28;20019;-68
2021/05/05 05:28:54;;;;;;;2.17;1.17;;;;;;;;;;5100172;28;20035;-66
2021/05/05 05:31:19;;;;;;;1.97;1.00;;;;;;;;;;5099877;28;21363;-66
2021/05/05 05:33:44;;;;;;;11.07;1.30;;;;;;;;;;5101857;28;20052;-66
2021/05/05 05:36:09;;;;;;;3.67;1.33;;;;;;;;;;5105116;28;20022;-65
2021/05/05 05:38:35;;;;;;;4.40;1.10;;;;;;;;;;5101804;28;20035;-65
2021/05/05 05:41:00;;;;;;;4.00;1.57;;;;;;;;;;5094702;28;20028;-65
2021/05/05 05:43:25;;;;;;;1.27;0.77;;;;;;;;;;5103987;28;20023;-65
2021/05/05 05:45:50;;;;;;;3.93;1.30;;;;;;;;;;5092772;28;20024;-65
2021/05/05 05:48:16;;;;;;;4.77;1.23;;;;;;;;;;5100436;28;20468;-65
2021/05/05 05:50:41;;;;;;;3.27;1.33;;;;;;;;;;5092261;28;20392;-65
2021/05/05 05:53:06;;;;;;;10.03;2.23;;;;;;;;;;5098451;28;20048;-65
2021/05/05 05:55:33;;;;;;;5.67;1.50;;;;;;;;;;5081525;28;20039;-65
2021/05/05 05:57:59;;;;;;;6.03;1.60;;;;;;;;;;5099061;28;20089;-66
2021/05/05 06:00:24;;;;;;;4.80;1.27;;;;;;;;;;5098397;28;20052;-66
2021/05/05 06:02:50;;;;;;;6.07;1.03;;;;;;;;;;5099136;28;20047;-66
2021/05/05 06:05:15;;;;;;;5.57;1.00;;;;;;;;;;5093073;28;20016;-66
2021/05/05 06:07:40;;;;;;;6.77;1.60;;;;;;;;;;5094337;28;20019;-65
2021/05/05 06:10:07;;;;;;;6.33;1.93;;;;;;;;;;5095024;28;20016;-65
2021/05/05 06:12:33;;;;;;;7.93;1.47;;;;;;;;;;5102879;28;20058;-66
2021/05/05 06:14:59;;;;;;;9.03;2.10;;;;;;;;;;5108134;28;20024;-66
2021/05/05 06:17:24;;;;;;;4.63;1.67;;;;;;;;;;5101493;28;20032;-66
2021/05/05 06:19:49;;;;;;;6.37;1.50;;;;;;;;;;5100411;28;20035;-67
2021/05/05 06:22:15;;;;;;;8.30;2.13;;;;;;;;;;5095757;28;20122;-66
2021/05/05 06:24:40;;;;;;;4.53;1.37;;;;;;;;;;5100436;28;20032;-66
2021/05/05 06:27:06;;;;;;;4.67;1.13;;;;;;;;;;5107829;28;20051;-68
2021/05/05 06:29:32;;;;;;;6.30;1.30;;;;;;;;;;5101264;28;20113;-69
2021/05/05 06:31:57;;;;;;;8.57;1.07;;;;;;;;;;5103020;28;20036;-71
2021/05/05 06:34:22;;;;;;;3.93;0.87;;;;;;;;;;5108190;27;20066;-72
2021/05/05 06:36:47;;;;;;;5.63;1.30;;;;;;;;;;5104469;28;20028;-73
2021/05/05 06:39:13;;;;;;;2.10;1.00;;;;;;;;;;5105713;28;20066;-74
2021/05/05 06:41:39;;;;;;;5.03;1.33;;;;;;;;;;5102024;28;20339;-74
2021/05/05 06:44:05;;;;;;;4.70;1.10;;;;;;;;;;5101912;28;20019;-71
2021/05/05 06:46:30;;;;;;;6.67;2.13;;;;;;;;;;5107592;28;20106;-69
2021/05/05 06:48:59;;;;;;;5.40;1.20;;;;;;;;;;5099142;28;20027;-68
2021/05/05 06:51:24;;;;;;;5.50;1.37;;;;;;;;;;5103525;28;20026;-67
2021/05/05 06:53:49;;;;;;;3.10;1.23;;;;;;;;;;5095601;28;20028;-66
2021/05/05 06:56:15;;;;;;;3.13;1.03;;;;;;;;;;5110062;28;20032;-68
2021/05/05 06:58:40;;;;;;;4.43;1.10;;;;;;;;;;5106393;28;20024;-71
2021/05/05 07:01:05;;;;;;;8.37;1.23;;;;;;;;;;5105476;28;20470;-72
2021/05/05 07:03:30;;;;;;;4.97;1.20;;;;;;;;;;5094825;28;20036;-70
2021/05/05 07:05:58;;;;;;;6.27;1.80;;;;;;;;;;5107516;28;20016;-68
2021/05/05 07:08:24;;;;;;;5.40;1.10;;;;;;;;;;5102557;28;20483;-68
2021/05/05 07:10:49;;;;;;;10.57;1.77;;;;;;;;;;5104821;28;20036;-67
2021/05/05 07:13:14;;;;;;;12.20;1.30;;;;;;;;;;5107115;28;20272;-67
2021/05/05 07:15:39;;;;;;;4.97;1.30;;;;;;;;;;5102516;28;20456;-69
2021/05/05 07:18:04;;;;;;;7.13;1.57;;;;;;;;;;5097791;28;20063;-71
2021/05/05 07:20:30;;;;;;;8.80;1.20;;;;;;;;;;5100413;28;20024;-68
2021/05/05 07:22:55;;;;;;;4.00;1.43;;;;;;;;;;5107823;28;20106;-66
2021/05/05 07:25:20;;;;;;;4.53;1.10;;;;;;;;;;5110819;28;20085;-66
2021/05/05 07:27:46;;;;;;;8.20;0.97;;;;;;;;;;5104205;27;20027;-66
2021/05/05 07:30:13;;;;;;;3.37;1.30;;;;;;;;;;5105907;27;20027;-66
2021/05/05 07:32:38;;;;;;;2.17;1.10;;;;;;;;;;5102143;28;20027;-67
2021/05/05 07:35:07;;;;;;;2.83;0.93;;;;;;;;;;5107929;28;20034;-66
2021/05/05 07:45:38;;;;;;;5.97;1.10;;;;;;;;;;5106031;27;20035;-67
2021/05/05 07:48:09;;;;;;;6.87;1.00;;;;;;;;;;5106253;28;20024;-66
2021/05/05 07:50:35;;;;;;;9.63;1.50;;;;;;;;;;5107702;27;20318;-67
2021/05/05 07:53:01;;;;;;;5.17;1.17;;;;;;;;;;5109066;28;20036;-67
2021/05/05 07:55:26;;;;;;;11.80;1.40;;;;;;;;;;5106327;28;20368;-66
2021/05/05 07:57:51;;;;;;;3.60;1.10;;;;;;;;;;5108226;27;20063;-67
2021/05/05 08:00:17;;;;;;;5.50;0.97;;;;;;;;;;5104466;28;20110;-66
2021/05/05 08:02:42;;;;;;;5.87;0.90;;;;;;;;;;5103850;28;20127;-66
2021/05/05 08:05:08;;;;;;;7.73;0.77;;;;;;;;;;5099506;28;20068;-67
2021/05/05 08:07:33;;;;;;;8.37;1.50;;;;;;;;;;5099933;27;20112;-66
2021/05/05 08:09:58;;;;;;;6.80;1.80;;;;;;;;;;5100129;27;20461;-66
2021/05/05 08:12:23;;;;;;;2.57;1.07;;;;;;;;;;5102900;28;20111;-67
2021/05/05 08:14:51;;;;;;;4.63;1.13;;;;;;;;;;5098986;27;20032;-68
2021/05/05 08:17:16;;;;;;;5.53;0.83;;;;;;;;;;5098434;28;20024;-67
2021/05/05 08:19:41;;;;;;;4.30;1.17;;;;;;;;;;5108687;28;20536;-68
2021/05/05 08:22:06;;;;;;;4.80;0.80;;;;;;;;;;5102652;28;20532;-68
2021/05/05 08:24:32;;;;;;;5.47;0.93;;;;;;;;;;5096980;27;20030;-68
2021/05/05 08:26:57;;;;;;;2.23;1.07;;;;;;;;;;5098875;27;20023;-67
2021/05/05 08:29:25;;;;;;;2.80;1.10;;;;;;;;;;5093568;28;20469;-67
2021/05/05 08:31:50;;;;;;;2.07;0.80;;;;;;;;;;5097097;28;20077;-68
2021/05/05 08:34:16;;;;;;;6.73;0.77;;;;;;;;;;5099470;28;20024;-70
2021/05/05 08:36:41;;;;;;;3.60;0.90;;;;;;;;;;5098215;28;20023;-70
2021/05/05 08:39:06;;;;;;;3.40;0.90;;;;;;;;;;5105427;27;20429;-67
2021/05/05 08:41:32;;;;;;;3.37;0.90;;;;;;;;;;5107823;28;20331;-67
2021/05/05 08:43:58;;;;;;;5.30;0.87;;;;;;;;;;5108322;28;20027;-67
2021/05/05 08:46:23;;;;;;;1.77;0.70;;;;;;;;;;5110247;28;20388;-68
2021/05/05 08:48:48;;;;;;;5.47;1.30;;;;;;;;;;5101276;28;20050;-68
2021/05/05 08:51:14;;;;;;;3.57;1.00;;;;;;;;;;5102912;28;20130;-68
2021/05/05 08:53:41;;;;;;;5.03;1.07;;;;;;;;;;5099961;28;20050;-67
2021/05/05 08:56:06;;;;;;;8.10;1.07;;;;;;;;;;5107154;28;20032;-67
2021/05/05 08:58:32;;;;;;;7.70;0.90;;;;;;;;;;5112259;28;20424;-67
2021/05/05 09:00:57;;;;;;;3.20;1.00;;;;;;;;;;5110853;28;20047;-67
2021/05/05 09:03:29;;;;;;;4.00;1.23;;;;;;;;;;5109591;28;20040;-67
2021/05/05 09:05:58;;;;;;;2.92;0.85;;;;;;;;;;5112115;28;20367;-67
2021/05/05 09:08:24;;;;;;;8.13;1.00;;;;;;;;;;5099790;28;20030;-67
2021/05/05 09:11:03;;;;;;;1.73;0.90;;;;;;;;;;5111707;28;20108;-69
2021/05/05 09:13:45;;;;;;;3.93;1.00;;;;;;;;;;5109607;28;20058;-70
2021/05/05 09:16:13;;;;;;;3.75;0.70;;;;;;;;;;5100713;28;20020;-71
2021/05/05 09:18:53;;;;;;;2.87;1.07;;;;;;;;;;5109482;28;20026;-71
2021/05/05 09:21:25;;;;;;;10.07;1.13;;;;;;;;;;5112497;28;20024;-73
2021/05/05 09:23:50;;;;;;;4.32;0.80;;;;;;;;;;5110780;28;20027;-73
2021/05/05 09:26:34;;;;;;;2.80;0.73;;;;;;;;;;5112283;28;20019;-73
2021/05/05 09:28:59;;;;;;;2.73;0.50;;;;;;;;;;5097643;28;20467;-74
2021/05/05 09:31:31;;;;;;;1.40;0.70;;;;;;;;;;5111879;28;20038;-71
2021/05/05 09:33:57;;;;;;;3.85;1.13;;;;;;;;;;5108058;28;20027;-72
2021/05/05 09:36:22;;;;;;;1.07;0.50;;;;;;;;;;5111486;28;20053;-70
2021/05/05 09:38:49;;;;;;;3.73;0.70;;;;;;;;;;5108430;28;20034;-69
2021/05/05 09:41:34;;;;;;;3.23;1.13;;;;;;;;;;5099596;28;20032;-71
2021/05/05 09:44:01;;;;;;;2.10;0.80;;;;;;;;;;5098496;28;20023;-69
2021/05/05 09:46:32;;;;;;;3.20;0.70;;;;;;;;;;5104882;28;20026;-68
2021/05/05 09:49:17;;;;;;;3.07;1.10;;;;;;;;;;5115948;28;20019;-67
2021/05/05 09:51:46;;;;;;;4.20;1.10;;;;;;;;;;5114149;28;20032;-67
2021/05/05 09:54:19;;;;;;;2.50;1.10;;;;;;;;;;5109704;28;20020;-67
2021/05/05 09:56:44;;;;;;;3.23;0.93;;;;;;;;;;5096225;27;20032;-67
2021/05/05 09:59:10;;;;;;;4.43;0.67;;;;;;;;;;5094985;28;20456;-67
2021/05/05 10:01:35;;;;;;;3.73;1.00;;;;;;;;;;5103040;27;20392;-67
2021/05/05 10:04:03;;;;;;;4.53;1.47;;;;;;;;;;5107547;27;20463;-67
2021/05/05 10:06:31;;;;;;;2.93;0.90;;;;;;;;;;5112325;28;20023;-68
2021/05/05 10:09:00;;;;;;;5.50;1.00;;;;;;;;;;5105997;28;20073;-67
2021/05/05 10:11:31;;;;;;;4.60;0.90;;;;;;;;;;5107741;28;20032;-67
2021/05/05 10:14:04;;;;;;;4.50;0.97;;;;;;;;;;5103543;27;20020;-67
2021/05/05 10:16:31;;;;;;;5.10;0.80;;;;;;;;;;5102060;28;20066;-66
2021/05/05 10:18:57;;;;;;;2.23;0.80;;;;;;;;;;5104086;28;20047;-66
2021/05/05 10:21:23;;;;;;;4.03;0.93;;;;;;;;;;5108275;28;20047;-66
2021/05/05 10:23:50;;;;;;;1.10;0.50;;;;;;;;;;5106255;28;20028;-66
2021/05/05 10:26:18;;;;;;;1.27;0.70;;;;;;;;;;5094859;28;20028;-66
2021/05/05 10:28:43;;;;;;;1.37;0.60;;;;;;;;;;5113963;27;20383;-66
2021/05/05 10:31:16;;;;;;;3.57;0.53;;;;;;;;;;5110207;28;20024;-66
2021/05/05 10:33:44;;;;;;;1.37;0.63;;;;;;;;;;5112570;28;20055;-67
2021/05/05 10:36:28;;;;;;;2.03;0.87;;;;;;;;;;5099355;28;20463;-66
2021/05/05 10:38:53;;;;;;;2.53;0.80;;;;;;;;;;5113119;28;20050;-66
2021/05/05 10:41:20;;;;;;;1.17;0.77;;;;;;;;;;5106434;28;20104;-67
2021/05/05 10:43:46;;;;;;;1.77;0.60;;;;;;;;;;5102973;28;20476;-67
2021/05/05 10:46:23;;;;;;;5.00;0.90;;;;;;;;;;5099659;28;20030;-67
2021/05/05 10:49:03;;;;;;;1.13;0.53;;;;;;;;;;5114032;28;20016;-67
2021/05/05 10:51:44;;;;;;;0.93;0.50;;;;;;;;;;5101698;28;20153;-67
2021/05/05 10:54:09;;;;;;;1.40;0.60;;;;;;;;;;5108527;28;20023;-67
2021/05/05 10:56:35;;;;;;;0.60;0.43;;;;;;;;;;5108130;28;20156;-66
2021/05/05 10:59:01;;;;;;;2.83;1.17;;;;;;;;;;5100597;27;20024;-66
2021/05/05 11:01:35;;;;;;;1.37;0.60;;;;;;;;;;5098540;28;20122;-66
2021/05/05 11:04:01;;;;;;;1.70;0.60;;;;;;;;;;5109688;28;20404;-66
2021/05/05 11:06:29;;;;;;;0.50;0.47;;;;;;;;;;5100699;28;20094;-66
2021/05/05 11:08:54;;;;;;;1.23;0.63;;;;;;;;;;5113534;28;20434;-66
2021/05/05 11:11:36;;;;;;;6.70;0.90;;;;;;;;;;5111568;28;20095;-67
2021/05/05 11:14:01;;;;;;;2.63;0.70;;;;;;;;;;5100193;28;20026;-67
2021/05/05 11:16:46;;;;;;;3.27;0.80;;;;;;;;;;5101412;28;20023;-67
2021/05/05 11:19:31;;;;;;;3.23;1.10;;;;;;;;;;5093273;28;20027;-67
2021/05/05 11:21:56;;;;;;;1.37;0.60;;;;;;;;;;5097598;28;20015;-67
2021/05/05 11:24:26;;;;;;;1.70;0.70;;;;;;;;;;5112733;27;20099;-66
2021/05/05 11:26:51;;;;;;;3.07;0.80;;;;;;;;;;5108533;28;20037;-66
2021/05/05 11:29:28;;;;;;;2.83;0.80;;;;;;;;;;5113453;28;20095;-66
2021/05/05 11:31:53;;;;;;;2.37;0.73;;;;;;;;;;5108906;28;20034;-66
2021/05/05 11:34:22;;;;;;;3.30;1.03;;;;;;;;;;5106716;27;20016;-66
2021/05/05 11:36:47;;;;;;;1.67;0.53;;;;;;;;;;5106565;28;20023;-67
2021/05/05 11:39:22;;;;;;;2.07;0.70;;;;;;;;;;5104498;28;20020;-66
2021/05/05 11:42:17;;;;;;;4.10;0.80;;;;;;;;;;5106628;28;20472;-66
2021/05/05 11:44:46;;;;;;;1.90;0.47;;;;;;;;;;5091560;27;20484;-66
2021/05/05 11:47:13;;;;;;;2.90;0.97;;;;;;;;;;5109122;27;20015;-66
2021/05/05 11:49:42;;;;;;;2.40;0.63;;;;;;;;;;5112161;28;20057;-66
2021/05/05 11:52:26;;;;;;;2.33;0.77;;;;;;;;;;5111449;28;20031;-66
2021/05/05 11:54:57;;;;;;;1.40;0.43;;;;;;;;;;5092920;28;20024;-66
2021/05/05 11:57:32;;;;;;;1.80;1.00;;;;;;;;;;5100732;27;20074;-66
2021/05/05 12:00:10;;;;;;;0.80;0.40;;;;;;;;;;5092567;28;20035;-66
2021/05/05 12:02:55;;;;;;;2.47;0.70;;;;;;;;;;5108727;28;20456;-66
2021/05/05 12:05:31;;;;;;;0.93;0.50;;;;;;;;;;5112639;27;20483;-66
2021/05/05 12:08:09;;;;;;;1.47;0.63;;;;;;;;;;5092567;28;20364;-66
2021/05/05 12:10:41;;;;;;;2.83;0.60;;;;;;;;;;5096527;28;20065;-66
2021/05/05 12:13:07;;;;;;;2.27;0.63;;;;;;;;;;5102314;28;20472;-66
2021/05/05 12:15:35;;;;;;;8.63;0.90;;;;;;;;;;5111062;28;20039;-67
2021/05/05 12:18:06;;;;;;;1.60;0.70;;;;;;;;;;5102528;27;20024;-67
2021/05/05 12:20:31;;;;;;;1.73;0.90;;;;;;;;;;5105694;27;20498;-67
2021/05/05 12:22:58;;;;;;;5.30;1.17;;;;;;;;;;5092492;28;20051;-65
2021/05/05 12:25:26;;;;;;;3.77;0.70;;;;;;;;;;5111951;28;20019;-66
2021/05/05 12:27:57;;;;;;;2.37;0.67;;;;;;;;;;5101248;28;20012;-66
2021/05/05 12:30:23;;;;;;;1.13;0.70;;;;;;;;;;5108955;28;20026;-67
2021/05/05 12:32:50;;;;;;;7.23;1.30;;;;;;;;;;5107962;28;20023;-67
2021/05/05 12:35:25;;;;;;;5.23;1.20;;;;;;;;;;5113178;28;20030;-66
2021/05/05 12:37:51;;;;;;;5.47;1.57;;;;;;;;;;5104310;28;20011;-67
2021/05/05 12:40:17;;;;;;;3.77;1.07;;;;;;;;;;5101511;28;20035;-66
2021/05/05 12:42:42;;;;;;;3.37;1.10;;;;;;;;;;5104001;28;20082;-67
2021/05/05 12:45:12;;;;;;;4.80;1.93;;;;;;;;;;5096550;27;20024;-67
2021/05/05 12:47:37;;;;;;;3.27;1.00;;;;;;;;;;5095368;28;20019;-67
2021/05/05 12:50:03;;;;;;;4.80;1.20;;;;;;;;;;5097353;28;20033;-67
2021/05/05 12:52:34;;;;;;;3.97;1.20;;;;;;;;;;5096778;28;20031;-67
2021/05/05 12:55:01;;;;;;;4.23;1.17;;;;;;;;;;5095219;28;20133;-67
2021/05/05 12:57:27;;;;;;;2.50;0.80;;;;;;;;;;5096032;28;20420;-67
2021/05/05 12:59:53;;;;;;;3.33;1.13;;;;;;;;;;5099135;28;20110;-67
2021/05/05 13:02:23;;;;;;;5.00;1.17;;;;;;;;;;5097853;28;20032;-67
2021/05/05 13:04:49;;;;;;;2.53;0.80;;;;;;;;;;5100825;28;20383;-67
2021/05/05 13:07:32;;;;;;;2.03;0.70;;;;;;;;;;5100329;28;20020;-67
2021/05/05 13:10:14;;;;;;;1.47;0.50;;;;;;;;;;5096980;28;20126;-68
2021/05/05 13:12:49;;;;;;;4.30;1.00;;;;;;;;;;5099549;28;20027;-66
2021/05/05 13:15:23;;;;;;;2.97;1.27;;;;;;;;;;5102915;28;20044;-66
2021/05/05 13:18:18;;;;;;;3.80;1.20;;;;;;;;;;5108520;28;20399;-66
2021/05/05 13:25:31;;;;;;;2.30;0.70;;;;;;;;;;5112892;28;20023;-66
2021/05/05 13:31:54;;;;;;;4.50;1.23;;;;;;;;;;5114958;27;20494;-66
2021/05/05 13:34:27;;;;;;;3.57;0.70;;;;;;;;;;5106655;28;20032;-66
2021/05/05 13:37:00;;;;;;;5.37;1.63;;;;;;;;;;5104776;28;20056;-66
2021/05/05 13:39:31;;;;;;;6.97;1.10;;;;;;;;;;5108434;28;20039;-66
2021/05/05 13:41:58;;;;;;;6.07;1.40;;;;;;;;;;5111427;28;20027;-66
2021/05/05 13:44:25;;;;;;;5.47;1.40;;;;;;;;;;5103369;27;20498;-66
2021/05/05 13:51:47;;;;;;;3.23;1.03;;;;;;;;;;5114097;28;20032;-66
2021/05/05 13:54:12;;;;;;;2.30;1.00;;;;;;;;;;5115583;28;20028;-66
2021/05/05 13:56:37;;;;;;;4.57;0.70;;;;;;;;;;5113235;28;20039;-66
2021/05/05 13:59:03;;;;;;;2.60;0.77;;;;;;;;;;5115618;28;20047;-66
2021/05/05 14:01:28;;;;;;;4.90;1.20;;;;;;;;;;5101023;28;20048;-66
2021/05/05 14:03:54;;;;;;;7.07;0.70;;;;;;;;;;5094663;28;20488;-66
2021/05/05 14:06:20;;;;;;;2.67;0.70;;;;;;;;;;5103222;28;20031;-66
2021/05/05 14:08:45;;;;;;;4.90;1.10;;;;;;;;;;5079566;28;20370;-65
2021/05/05 14:11:12;;;;;;;2.17;0.70;;;;;;;;;;5113736;27;20026;-66
2021/05/05 14:13:37;;;;;;;5.07;0.90;;;;;;;;;;5111516;28;20078;-66
2021/05/05 14:16:03;;;;;;;1.63;0.57;;;;;;;;;;5098862;28;20083;-65
2021/05/05 14:18:29;;;;;;;3.17;1.13;;;;;;;;;;5103632;28;20054;-66
2021/05/05 14:20:54;;;;;;;2.77;0.83;;;;;;;;;;5111727;28;20036;-66
2021/05/05 14:23:20;;;;;;;5.77;1.13;;;;;;;;;;5106281;28;20038;-65
2021/05/05 14:25:47;;;;;;;6.50;0.87;;;;;;;;;;5094384;28;20028;-66
2021/05/05 14:28:12;;;;;;;5.73;1.13;;;;;;;;;;5113480;28;20027;-65
2021/05/05 14:30:37;;;;;;;3.87;0.90;;;;;;;;;;5113637;28;20356;-65
2021/05/05 14:33:03;;;;;;;3.07;0.90;;;;;;;;;;5111010;28;20047;-65
2021/05/05 14:35:30;;;;;;;4.83;1.10;;;;;;;;;;5096044;28;20032;-65
2021/05/05 14:38:18;;;;;;;5.00;1.20;;;;;;;;;;5112920;28;20356;-65
2021/05/05 14:40:43;;;;;;;6.37;0.90;;;;;;;;;;5093291;28;20040;-66
2021/05/05 14:43:20;;;;;;;4.07;1.13;;;;;;;;;;5095493;28;20457;-66
2021/05/05 14:48:30;;;;;;;4.87;1.40;;;;;;;;;;5105575;28;20070;-66
2021/05/05 14:50:57;;;;;;;4.63;1.20;;;;;;;;;;5100139;28;20027;-66
2021/05/05 14:53:23;;;;;;;4.20;0.90;;;;;;;;;;5112332;28;20062;-66
2021/05/05 14:55:49;;;;;;;4.53;1.03;;;;;;;;;;5106484;28;20063;-66
2021/05/05 14:58:17;;;;;;;4.27;1.17;;;;;;;;;;5105988;28;20085;-66
2021/05/05 15:00:42;;;;;;;4.50;1.20;;;;;;;;;;5108830;27;20045;-66
2021/05/05 15:03:08;;;;;;;3.20;0.90;;;;;;;;;;5101568;27;20036;-66
2021/05/05 15:05:34;;;;;;;2.37;1.13;;;;;;;;;;5102922;28;20111;-66
2021/05/05 15:08:02;;;;;;;8.50;1.73;;;;;;;;;;5101862;28;20094;-66